KFTK

Godman AAF Airport

Fort Knox, Kentucky, USA
METAR KFTK 160956Z AUTO 20007KT 10SM CLR M01/M05 A3011 RMK AO2 SLP206 T10071049
Observed Flight Rules
Dec-16 @ 09:56 UTC (an hour ago) Visual Flight Rules
Wind Visibility Clouds
200° at 7 knots 10 miles
  • Clear skies
Temperatures Readings
Current -1°C / 30°F
Dewpoint -5°C / 23°F
Humidity 75%
Altimeter 30.11" Hg
Pressure 1020.6 hPa
Elevation 230
METAR KFTK 160956Z AUTO 20007KT 10SM CLR M01/M05 A3011 RMK AO2 SLP206 T10071049
Observed Flight Rules
Dec-16 @ 09:56 UTC
(an hour ago)
VFR
Wind Visibility
200° at 7 knots 10 miles
Clouds
  • Clear skies
Temperature Dewpoint
-1°C / 30°F -5°C / 23°F
Humidity Altimeter Pressure
75% 30.11" Hg 1020.6 hPa